Terminal Aerodrome Forecast
Issued by NWS

Home | Current Version | Previous Version | Text Only | Print | Product List | Glossary On
Versions: 1 2 3 4 5 6 7 8 9 10 11 12 13 14 15 16 17 18 19 20 21
164
FTUS41 KCAR 311749
TAFPQI
TAF
KPQI 311749Z 3118/0118 28009G15KT 6SM -SHRA BKN040
     FM312300 32008KT P6SM BKN080
     FM011100 01008KT P6SM FEW150=

USA.gov is the U.S. government's official web portal to all federal, state and local government web resources and services.